createdAt,value
2022-09-05T00:02:20.066Z,11.85
2022-09-05T00:04:56.525Z,12.27
2022-09-05T00:07:36.012Z,12.25
2022-09-05T00:10:36.005Z,13.80
2022-09-05T00:12:49.242Z,15.82
2022-09-05T00:15:54.706Z,13.82
2022-09-05T00:23:26.924Z,13.82
2022-09-05T00:24:20.307Z,12.05
2022-09-05T00:24:42.631Z,12.32
2022-09-05T00:27:17.600Z,10.65
2022-09-05T00:29:44.954Z,11.32
2022-09-05T00:32:13.109Z,11.07
2022-09-05T00:34:49.879Z,10.93
2022-09-05T00:36:56.012Z,9.95
2022-09-05T00:39:02.531Z,10.23
2022-09-05T00:41:13.335Z,13.48
2022-09-05T00:43:33.306Z,10.15
2022-09-05T00:46:02.867Z,10.88
2022-09-05T00:48:29.687Z,9.63
2022-09-05T00:50:55.507Z,9.50
2022-09-05T00:53:23.996Z,9.40
2022-09-05T00:56:03.922Z,9.48
2022-09-05T00:58:38.837Z,9.45
2022-09-05T01:00:57.351Z,10.05
2022-09-05T01:03:29.864Z,9.45
2022-09-05T01:06:13.111Z,9.35
2022-09-05T01:08:54.332Z,8.95
2022-09-05T01:11:33.797Z,12.30
2022-09-05T01:14:16.393Z,8.25
2022-09-05T01:16:42.956Z,8.40
2022-09-05T01:19:22.825Z,10.90
2022-09-05T01:21:59.381Z,8.98
2022-09-05T01:24:27.946Z,9.93
2022-09-05T01:26:57.888Z,8.20
2022-09-05T01:29:30.794Z,8.90
2022-09-05T01:32:04.024Z,9.65
2022-09-05T01:35:00.088Z,14.52
2022-09-05T01:37:24.773Z,12.73
2022-09-05T01:40:15.545Z,11.23
2022-09-05T01:43:02.064Z,7.78
2022-09-05T01:45:42.764Z,7.88
2022-09-05T01:50:36.501Z,10.27
2022-09-05T01:53:04.129Z,7.68
2022-09-05T01:56:05.598Z,8.90
2022-09-05T01:58:25.909Z,7.78
2022-09-05T02:00:48.519Z,9.40
2022-09-05T02:03:33.908Z,10.43
2022-09-05T02:06:12.779Z,7.65
2022-09-05T02:08:51.549Z,8.23
2022-09-05T02:11:08.110Z,7.82
2022-09-05T02:13:45.028Z,8.80
2022-09-05T02:16:29.537Z,8.15
2022-09-05T02:19:06.871Z,7.78
2022-09-05T02:21:17.170Z,8.85
2022-09-05T02:23:42.010Z,12.32
2022-09-05T02:26:17.873Z,7.55
2022-09-05T02:29:07.320Z,8.70
2022-09-05T02:31:35.433Z,8.02
2022-09-05T02:34:17.468Z,7.72
2022-09-05T02:36:32.044Z,9.68
2022-09-05T02:39:54.923Z,10.15
2022-09-05T02:45:10.683Z,6.10
2022-09-05T02:45:14.498Z,8.40
2022-09-05T02:47:39.868Z,7.97
2022-09-05T02:53:57.810Z,7.43
2022-09-05T02:57:39.662Z,7.28
2022-09-05T02:57:41.149Z,6.90
2022-09-05T02:58:07.396Z,6.97
2022-09-05T03:00:26.653Z,7.90
2022-09-05T03:03:03.173Z,9.20
2022-09-05T03:05:40.308Z,11.60
2022-09-05T03:08:06.807Z,8.75
2022-09-05T03:10:53.827Z,7.30
2022-09-05T03:13:33.509Z,8.45
2022-09-05T03:16:05.403Z,9.98
2022-09-05T03:18:26.486Z,9.50
2022-09-05T03:21:09.559Z,7.65
2022-09-05T03:23:46.485Z,7.60
2022-09-05T03:26:20.073Z,7.38
2022-09-05T03:28:56.480Z,7.93
2022-09-05T03:31:42.584Z,8.25
2022-09-05T03:34:18.976Z,8.50
2022-09-05T03:36:48.053Z,7.50
2022-09-05T03:39:20.317Z,7.30
2022-09-05T03:42:03.638Z,9.35
2022-09-05T03:44:43.652Z,7.25
2022-09-05T03:47:15.159Z,9.35
2022-09-05T03:53:29.465Z,7.38
2022-09-05T03:57:07.028Z,8.13
2022-09-05T03:57:15.712Z,8.43
2022-09-05T03:58:16.641Z,8.20
2022-09-05T04:00:38.420Z,9.75
2022-09-05T04:08:10.117Z,8.20
2022-09-05T04:08:16.455Z,7.65
2022-09-05T04:09:37.121Z,8.82
2022-09-05T04:11:51.168Z,8.00
2022-09-05T04:14:01.235Z,8.80
2022-09-05T04:16:30.413Z,8.57
2022-09-05T04:18:48.479Z,10.35
2022-09-05T04:21:19.132Z,8.98
2022-09-05T04:23:45.074Z,9.73
2022-09-05T04:26:17.282Z,7.60
2022-09-05T04:28:53.277Z,10.95
2022-09-05T04:31:26.124Z,8.93
2022-09-05T04:33:48.963Z,8.68
2022-09-05T04:36:18.537Z,8.45
2022-09-05T04:38:39.857Z,10.20
2022-09-05T04:41:17.535Z,7.72
2022-09-05T04:43:56.450Z,8.80
2022-09-05T04:46:18.986Z,7.40
2022-09-05T04:48:37.249Z,7.28
2022-09-05T04:51:07.815Z,7.35
2022-09-05T04:53:50.325Z,8.85
2022-09-05T04:55:59.670Z,9.18
2022-09-05T04:58:12.239Z,17.27
2022-09-05T05:06:03.129Z,10.82
2022-09-05T05:08:14.092Z,10.90
2022-09-05T05:16:27.870Z,9.40
2022-09-05T05:17:59.868Z,8.68
2022-09-05T05:18:13.399Z,10.45
2022-09-05T05:19:18.809Z,9.55
2022-09-05T05:21:28.576Z,7.28
2022-09-05T05:23:41.981Z,6.47
2022-09-05T05:25:54.942Z,8.00
2022-09-05T05:28:34.519Z,8.05
2022-09-05T05:30:39.175Z,8.25
2022-09-05T05:32:46.724Z,8.60
2022-09-05T05:34:58.470Z,7.95
2022-09-05T05:37:34.799Z,7.97
2022-09-05T05:39:47.545Z,8.10
2022-09-05T05:41:55.824Z,7.38
2022-09-05T05:44:00.524Z,7.75
2022-09-05T05:46:08.352Z,7.95
2022-09-05T05:48:35.128Z,7.40
2022-09-05T05:50:54.096Z,9.68
2022-09-05T05:53:42.749Z,7.53
2022-09-05T05:56:17.081Z,7.25
2022-09-05T05:58:59.306Z,8.50
2022-09-05T06:01:38.314Z,8.63
2022-09-05T06:04:09.156Z,8.38
2022-09-05T06:06:35.023Z,8.40
2022-09-05T06:14:06.548Z,8.65
2022-09-05T06:14:58.421Z,7.80
2022-09-05T06:15:12.112Z,8.27
2022-09-05T06:17:43.993Z,8.05
2022-09-05T06:21:18.172Z,7.78
2022-09-05T06:23:27.548Z,8.75
2022-09-05T06:26:03.236Z,8.02
2022-09-05T06:28:44.348Z,7.18
2022-09-05T06:31:29.286Z,8.45
2022-09-05T06:34:03.997Z,8.35
2022-09-05T06:36:34.796Z,6.53
2022-09-05T06:39:04.664Z,6.63
2022-09-05T06:41:39.922Z,11.00
2022-09-05T06:44:10.177Z,7.20
2022-09-05T06:46:54.544Z,6.95
2022-09-05T06:49:30.699Z,6.78
2022-09-05T06:52:22.973Z,6.75
2022-09-05T06:54:59.845Z,7.90
2022-09-05T06:57:44.112Z,8.38
2022-09-05T07:00:07.256Z,6.82
2022-09-05T07:02:59.949Z,6.15
2022-09-05T07:05:39.877Z,6.50
2022-09-05T07:07:55.388Z,8.32
2022-09-05T07:10:22.131Z,7.47
2022-09-05T07:12:56.974Z,7.65
2022-09-05T07:15:40.999Z,7.55
2022-09-05T07:18:20.254Z,8.35
2022-09-05T07:21:17.486Z,9.55
2022-09-05T07:24:05.484Z,6.90
2022-09-05T07:25:41.162Z,8.02
2022-09-05T07:28:26.536Z,7.38
2022-09-05T07:30:26.284Z,10.15
2022-09-05T07:32:32.619Z,7.38
2022-09-05T07:34:37.596Z,7.05
2022-09-05T07:36:45.034Z,8.02
2022-09-05T07:39:02.593Z,8.10
2022-09-05T07:41:28.323Z,8.73
2022-09-05T07:43:40.677Z,7.05
2022-09-05T07:46:14.510Z,10.33
2022-09-05T07:48:34.602Z,8.95
2022-09-05T07:55:00.511Z,9.13
2022-09-05T07:56:54.487Z,7.22
2022-09-05T07:57:04.918Z,7.80
2022-09-05T07:58:16.628Z,10.07
2022-09-05T08:00:26.775Z,6.95
2022-09-05T08:02:37.118Z,11.18
2022-09-05T08:04:42.973Z,13.00
2022-09-05T08:07:46.404Z,10.30
2022-09-05T08:10:06.283Z,9.00
2022-09-05T08:11:53.932Z,9.48
2022-09-05T08:14:43.561Z,8.20
2022-09-05T08:16:52.786Z,7.63
2022-09-05T08:19:27.012Z,6.80
2022-09-05T08:21:43.218Z,9.82
2022-09-05T08:23:56.555Z,7.78
2022-09-05T08:26:18.380Z,7.75
2022-09-05T08:28:46.155Z,7.65
2022-09-05T08:31:07.852Z,7.15
2022-09-05T08:33:15.372Z,7.07
2022-09-05T08:35:34.820Z,5.82
2022-09-05T08:37:41.257Z,7.60
2022-09-05T08:39:47.004Z,8.55
2022-09-05T08:42:12.911Z,8.05
2022-09-05T08:46:39.566Z,7.25
2022-09-05T08:47:27.103Z,11.80
2022-09-05T08:49:56.086Z,6.68
2022-09-05T08:52:35.596Z,6.95
2022-09-05T08:55:04.283Z,8.35
2022-09-05T08:57:34.644Z,6.43
2022-09-05T09:00:20.446Z,8.60
2022-09-05T09:03:05.385Z,8.10
2022-09-05T09:05:26.166Z,6.78
2022-09-05T09:08:15.861Z,7.47
2022-09-05T09:10:49.955Z,6.47
2022-09-05T09:13:07.433Z,6.15
2022-09-05T09:15:29.825Z,6.40
2022-09-05T09:17:56.169Z,8.65
2022-09-05T09:20:18.650Z,6.97
2022-09-05T09:23:01.888Z,9.90
2022-09-05T09:25:25.905Z,8.10
2022-09-05T09:28:46.494Z,8.48
2022-09-05T09:30:24.835Z,8.48
2022-09-05T09:32:30.524Z,10.07
2022-09-05T09:35:14.864Z,8.65
2022-09-05T09:38:01.091Z,11.43
2022-09-05T09:40:26.110Z,11.05
2022-09-05T09:43:07.193Z,9.85
2022-09-05T09:45:52.426Z,6.43
2022-09-05T09:48:33.147Z,7.00
2022-09-05T09:51:03.130Z,8.82
2022-09-05T09:53:42.492Z,8.73
2022-09-05T09:56:20.182Z,7.38
2022-09-05T09:58:57.096Z,7.97
2022-09-05T10:01:36.360Z,6.93
2022-09-05T10:10:38.061Z,7.30
2022-09-05T10:10:46.659Z,6.72
2022-09-05T10:10:50.599Z,6.93
2022-09-05T10:13:08.846Z,7.00
2022-09-05T10:15:41.890Z,7.47
2022-09-05T10:18:29.046Z,7.75
2022-09-05T10:21:17.104Z,6.18
2022-09-05T10:23:46.963Z,8.13
2022-09-05T10:26:18.325Z,6.70
2022-09-05T10:28:51.628Z,7.10
2022-09-05T10:33:54.104Z,6.15
2022-09-05T10:35:10.609Z,6.55
2022-09-05T10:36:32.361Z,7.38
2022-09-05T10:38:44.392Z,5.20
2022-09-05T10:41:22.306Z,6.50
2022-09-05T10:43:31.232Z,7.15
2022-09-05T10:46:05.717Z,9.25
2022-09-05T10:48:42.518Z,7.10
2022-09-05T10:51:11.477Z,8.43
2022-09-05T10:53:53.014Z,7.47
2022-09-05T10:56:14.180Z,11.43
2022-09-05T11:00:50.740Z,9.75
2022-09-05T11:02:28.148Z,14.55
2022-09-05T11:04:37.145Z,17.80
2022-09-05T11:06:55.623Z,12.80
2022-09-05T11:09:22.588Z,12.40
2022-09-05T11:11:35.055Z,16.02
2022-09-05T11:13:52.275Z,9.32
2022-09-05T11:16:19.398Z,7.88
2022-09-05T11:18:55.062Z,10.93
2022-09-05T11:21:49.019Z,8.38
2022-09-05T11:23:59.958Z,9.48
2022-09-05T11:26:09.617Z,8.52
2022-09-05T11:28:20.234Z,13.57
2022-09-05T11:30:38.644Z,9.05
2022-09-05T11:39:47.231Z,8.48
2022-09-05T11:39:51.262Z,7.55
2022-09-05T11:40:06.814Z,6.80
2022-09-05T11:41:41.663Z,7.35
2022-09-05T11:44:26.328Z,7.18
2022-09-05T11:46:53.082Z,7.75
2022-09-05T11:49:24.078Z,7.15
2022-09-05T11:51:54.105Z,8.57
2022-09-05T11:54:22.884Z,7.00
2022-09-05T11:56:49.563Z,7.95
2022-09-05T11:59:08.890Z,6.65
2022-09-05T12:04:36.312Z,6.70
2022-09-05T12:07:29.815Z,7.82
2022-09-05T12:10:03.500Z,5.55
2022-09-05T12:12:39.553Z,7.25
2022-09-05T12:15:07.371Z,5.60
2022-09-05T12:17:35.863Z,5.00
2022-09-05T12:19:57.525Z,3.72
2022-09-05T12:22:34.494Z,5.15
2022-09-05T12:25:25.740Z,3.67
2022-09-05T12:27:46.020Z,4.63
2022-09-05T12:29:59.866Z,4.05
2022-09-05T12:33:58.130Z,4.90
2022-09-05T12:36:07.866Z,4.25
2022-09-05T12:41:38.190Z,3.22
2022-09-05T12:41:44.797Z,10.05
2022-09-05T12:44:39.834Z,3.55
2022-09-05T12:45:50.345Z,4.75
2022-09-05T12:48:38.949Z,3.58
2022-09-05T12:51:09.004Z,4.78
2022-09-05T12:53:17.083Z,4.53
2022-09-05T12:55:52.146Z,4.32
2022-09-05T13:02:56.425Z,4.90
2022-09-05T13:03:13.064Z,4.22
2022-09-05T13:03:29.870Z,3.67
2022-09-05T13:06:06.768Z,4.38
2022-09-05T13:08:12.704Z,4.68
2022-09-05T13:13:30.569Z,5.15
2022-09-05T13:15:01.987Z,5.00
2022-09-05T13:15:39.260Z,4.53
2022-09-05T13:18:12.181Z,7.57
2022-09-05T13:20:45.876Z,5.93
2022-09-05T13:22:52.088Z,4.70
2022-09-05T13:25:18.846Z,6.50
2022-09-05T13:27:41.838Z,4.85
2022-09-05T13:31:13.739Z,5.15
2022-09-05T13:37:59.736Z,5.97
2022-09-05T13:38:02.655Z,4.10
2022-09-05T13:38:16.291Z,4.72
2022-09-05T13:40:24.857Z,5.90
2022-09-05T13:42:32.749Z,6.32
2022-09-05T13:44:41.452Z,6.03
2022-09-05T13:47:29.822Z,4.85
2022-09-05T13:49:50.551Z,7.32
2022-09-05T13:52:11.594Z,5.57
2022-09-05T13:54:39.215Z,7.85
2022-09-05T13:57:26.814Z,6.18
2022-09-05T14:02:26.051Z,7.43
2022-09-05T14:05:09.671Z,5.35
2022-09-05T14:07:44.520Z,4.38
2022-09-05T14:10:21.846Z,6.20
2022-09-05T14:12:49.770Z,7.13
2022-09-05T14:15:16.292Z,5.97
2022-09-05T14:17:56.247Z,5.53
2022-09-05T14:20:16.325Z,7.93
2022-09-05T14:22:53.611Z,6.40
2022-09-05T14:25:00.228Z,7.32
2022-09-05T14:27:18.668Z,7.97
2022-09-05T14:29:52.264Z,8.23
2022-09-05T14:37:43.663Z,8.48
2022-09-05T14:37:45.117Z,7.78
2022-09-05T14:38:14.627Z,9.48
2022-09-05T14:40:52.200Z,9.50
2022-09-05T14:43:07.633Z,6.22
2022-09-05T14:45:40.196Z,7.57
2022-09-05T14:48:16.867Z,6.53
2022-09-05T14:51:03.406Z,7.07
2022-09-05T14:56:56.428Z,8.00
2022-09-05T15:02:42.516Z,8.98
2022-09-05T15:02:52.292Z,8.63
2022-09-05T15:06:28.170Z,13.07
2022-09-05T15:11:26.308Z,9.00
2022-09-05T15:12:18.131Z,8.55
2022-09-05T15:13:38.236Z,8.57
2022-09-05T15:15:59.026Z,8.23
2022-09-05T15:18:24.610Z,8.80
2022-09-05T15:20:34.919Z,7.28
2022-09-05T15:22:43.314Z,8.43
2022-09-05T15:25:16.705Z,8.38
2022-09-05T15:27:21.846Z,9.05
2022-09-05T15:29:30.425Z,9.50
2022-09-05T15:31:35.947Z,8.63
2022-09-05T15:33:42.130Z,8.88
2022-09-05T15:35:48.488Z,10.77
2022-09-05T15:37:57.693Z,9.52
2022-09-05T15:40:22.358Z,9.65
2022-09-05T15:42:32.691Z,9.40
2022-09-05T15:45:06.297Z,7.82
2022-09-05T15:47:08.320Z,9.57
2022-09-05T15:49:26.973Z,7.28
2022-09-05T15:51:53.180Z,10.30
2022-09-05T15:54:01.513Z,7.78
2022-09-05T15:56:20.085Z,8.18
2022-09-05T15:58:27.619Z,8.45
2022-09-05T16:00:53.636Z,10.02
2022-09-05T16:03:30.137Z,8.60
2022-09-05T16:10:28.080Z,9.98
2022-09-05T16:10:50.117Z,7.03
2022-09-05T16:11:07.707Z,9.82
2022-09-05T16:12:58.711Z,11.27
2022-09-05T16:18:45.652Z,10.90
2022-09-05T16:23:15.700Z,6.75
2022-09-05T16:23:33.138Z,7.37
2022-09-05T16:23:34.062Z,11.82
2022-09-05T16:25:31.036Z,8.68
2022-09-05T16:27:54.743Z,6.80
2022-09-05T16:30:02.257Z,9.82
2022-09-05T16:32:14.747Z,6.53
2022-09-05T16:34:43.737Z,7.10
2022-09-05T16:37:17.051Z,9.18
2022-09-05T16:39:23.417Z,9.02
2022-09-05T16:41:47.470Z,10.57
2022-09-05T16:44:04.148Z,8.18
2022-09-05T16:46:22.718Z,10.88
2022-09-05T16:48:59.141Z,7.07
2022-09-05T16:51:20.431Z,11.57
2022-09-05T16:53:58.017Z,10.52
2022-09-05T16:56:13.795Z,9.13
2022-09-05T16:58:27.200Z,8.70
2022-09-05T17:00:32.508Z,12.70
2022-09-05T17:02:54.156Z,7.20
2022-09-05T17:05:37.457Z,12.38
2022-09-05T17:08:18.422Z,8.27
2022-09-05T17:10:29.869Z,8.70
2022-09-05T17:12:38.427Z,12.05
2022-09-05T17:14:49.451Z,10.50
2022-09-05T17:16:57.406Z,11.45
2022-09-05T17:19:02.761Z,7.75
2022-09-05T17:21:11.643Z,8.70
2022-09-05T17:26:27.803Z,9.55
2022-09-05T17:29:18.858Z,9.05
2022-09-05T17:29:30.538Z,8.30
2022-09-05T17:31:57.045Z,10.38
2022-09-05T17:34:26.760Z,7.45
2022-09-05T17:36:42.395Z,10.20
2022-09-05T17:39:11.059Z,9.93
2022-09-05T17:41:34.601Z,9.85
2022-09-05T17:43:40.327Z,10.45
2022-09-05T17:46:07.945Z,9.75
2022-09-05T17:50:55.071Z,7.22
2022-09-05T17:53:25.860Z,10.63
2022-09-05T17:56:07.366Z,10.45
2022-09-05T17:58:49.741Z,9.57
2022-09-05T18:01:22.282Z,10.40
2022-09-05T18:04:17.241Z,8.35
2022-09-05T18:06:35.476Z,9.55
2022-09-05T18:08:53.224Z,10.10
2022-09-05T18:11:14.114Z,10.20
2022-09-05T18:13:32.443Z,10.18
2022-09-05T18:16:16.626Z,8.80
2022-09-05T18:19:03.726Z,10.32
2022-09-05T18:21:21.622Z,7.55
2022-09-05T18:26:22.866Z,11.77
2022-09-05T18:28:34.483Z,10.00
2022-09-05T18:30:45.160Z,9.32
2022-09-05T18:33:55.465Z,8.77
2022-09-05T18:35:41.876Z,8.88
2022-09-05T18:38:17.959Z,8.38
2022-09-05T18:40:37.388Z,10.80
2022-09-05T18:42:42.002Z,8.05
2022-09-05T18:45:01.569Z,9.02
2022-09-05T18:47:32.944Z,12.07
2022-09-05T18:49:42.359Z,7.53
2022-09-05T18:52:17.080Z,9.38
2022-09-05T18:54:27.963Z,9.27
2022-09-05T18:57:12.057Z,10.02
2022-09-05T18:59:26.565Z,8.70
2022-09-05T19:01:41.326Z,15.48
2022-09-05T19:03:45.883Z,9.13
2022-09-05T19:06:36.886Z,10.43
2022-09-05T19:08:39.031Z,9.98
2022-09-05T19:10:44.736Z,10.70
2022-09-05T19:12:59.601Z,14.07
2022-09-05T19:15:16.065Z,15.00
2022-09-05T19:17:35.255Z,8.77
2022-09-05T19:20:32.439Z,8.13
2022-09-05T19:23:11.844Z,13.05
2022-09-05T19:25:42.678Z,11.90
2022-09-05T19:34:42.093Z,10.82
2022-09-05T19:36:45.721Z,10.38
2022-09-05T19:37:03.297Z,8.23
2022-09-05T19:37:04.777Z,12.35
2022-09-05T19:37:56.889Z,15.93
2022-09-05T19:44:07.697Z,9.93
2022-09-05T19:47:41.668Z,8.65
2022-09-05T19:47:43.460Z,12.40
2022-09-05T19:47:56.207Z,9.82
2022-09-05T19:50:07.238Z,9.48
2022-09-05T19:52:19.498Z,13.13
2022-09-05T19:54:38.984Z,9.73
2022-09-05T19:56:48.227Z,11.32
2022-09-05T19:58:53.026Z,14.23
2022-09-05T20:01:06.912Z,10.80
2022-09-05T20:03:22.730Z,9.13
2022-09-05T20:05:27.416Z,12.27
2022-09-05T20:07:35.146Z,9.77
2022-09-05T20:09:48.125Z,10.65
2022-09-05T20:11:54.570Z,9.95
2022-09-05T20:14:22.679Z,7.97
2022-09-05T20:16:32.175Z,10.63
2022-09-05T20:18:41.781Z,9.00
2022-09-05T20:21:20.232Z,8.38
2022-09-05T20:23:29.365Z,8.27
2022-09-05T20:25:42.412Z,11.55
2022-09-05T20:28:07.194Z,9.73
2022-09-05T20:30:23.916Z,9.70
2022-09-05T20:32:40.002Z,10.85
2022-09-05T20:37:12.853Z,17.77
2022-09-05T20:43:16.532Z,20.48
2022-09-05T20:50:44.441Z,10.90
2022-09-05T20:54:21.352Z,11.57
2022-09-05T20:54:27.178Z,10.40
2022-09-05T20:56:07.538Z,10.63
2022-09-05T20:58:54.850Z,14.05
2022-09-05T21:01:22.318Z,19.15
2022-09-05T21:03:32.398Z,12.55
2022-09-05T21:05:47.022Z,14.95
2022-09-05T21:11:01.073Z,12.43
2022-09-05T21:13:18.147Z,13.40
2022-09-05T21:15:52.727Z,11.63
2022-09-05T21:18:06.071Z,9.68
2022-09-05T21:23:20.084Z,9.07
2022-09-05T21:38:34.576Z,12.52
2022-09-05T21:41:08.085Z,16.20
2022-09-05T21:47:35.623Z,14.68
2022-09-05T21:47:40.993Z,16.33
2022-09-05T21:48:13.554Z,18.17
2022-09-05T21:50:30.874Z,11.77
2022-09-05T21:52:45.097Z,14.65
2022-09-05T21:59:14.660Z,13.18
2022-09-05T21:59:24.160Z,11.77
2022-09-05T22:00:07.076Z,15.43
2022-09-05T22:02:35.144Z,13.32
2022-09-05T22:04:45.698Z,12.23
2022-09-05T22:06:55.169Z,12.73
2022-09-05T22:09:13.103Z,13.30
2022-09-05T22:11:20.284Z,13.60
2022-09-05T22:13:31.369Z,11.98
2022-09-05T22:15:38.150Z,15.43
2022-09-05T22:17:46.640Z,12.70
2022-09-05T22:19:57.468Z,12.70
2022-09-05T22:22:08.154Z,17.15
2022-09-05T22:24:20.055Z,14.15
2022-09-05T22:26:29.437Z,12.75
2022-09-05T22:28:36.652Z,13.80
2022-09-05T22:30:41.179Z,13.82
2022-09-05T22:32:45.650Z,13.18
2022-09-05T22:34:52.467Z,15.50
2022-09-05T22:36:58.922Z,11.48
2022-09-05T22:39:06.083Z,12.23
2022-09-05T22:41:33.264Z,16.75
2022-09-05T22:43:40.176Z,12.18
2022-09-05T22:45:51.570Z,10.65
2022-09-05T22:48:18.619Z,14.80
2022-09-05T22:50:25.596Z,13.20
2022-09-05T22:52:52.564Z,12.23
2022-09-05T22:57:49.520Z,13.13
2022-09-05T22:59:57.732Z,12.30
2022-09-05T23:02:06.751Z,15.45
2022-09-05T23:04:31.511Z,14.13
2022-09-05T23:06:47.822Z,13.57
2022-09-05T23:08:56.700Z,14.85
2022-09-05T23:11:14.534Z,15.02
2022-09-05T23:13:28.936Z,16.95
2022-09-05T23:15:41.119Z,15.23
2022-09-05T23:17:57.992Z,14.10
2022-09-05T23:20:16.054Z,13.70
2022-09-05T23:22:24.327Z,16.67
2022-09-05T23:24:32.716Z,14.88
2022-09-05T23:26:40.311Z,14.85
2022-09-05T23:28:48.497Z,13.90
2022-09-05T23:31:01.035Z,19.13
2022-09-05T23:33:07.896Z,15.30
2022-09-05T23:35:15.259Z,17.90
2022-09-05T23:37:21.124Z,14.90
2022-09-05T23:39:29.230Z,15.75
2022-09-05T23:41:34.072Z,13.07
2022-09-05T23:43:41.155Z,12.73
2022-09-05T23:45:48.786Z,12.43
2022-09-05T23:47:54.450Z,13.18
2022-09-05T23:49:59.166Z,14.80
2022-09-05T23:52:06.358Z,13.35
2022-09-05T23:54:11.108Z,14.52
2022-09-05T23:56:37.475Z,13.90
2022-09-05T23:58:42.135Z,14.32
